sensor_id;sensor_type;location;lat;lon;timestamp;temperature;humidity
23069;DHT22;11702;50.856;4.348;2022-07-25T00:01:38;24.80;93.70
23069;DHT22;11702;50.856;4.348;2022-07-25T00:04:03;24.80;93.90
23069;DHT22;11702;50.856;4.348;2022-07-25T00:06:29;24.80;93.90
23069;DHT22;11702;50.856;4.348;2022-07-25T00:08:55;24.80;93.90
23069;DHT22;11702;50.856;4.348;2022-07-25T00:11:21;24.80;94.00
23069;DHT22;11702;50.856;4.348;2022-07-25T00:13:46;24.70;94.10
23069;DHT22;11702;50.856;4.348;2022-07-25T00:16:12;24.80;94.10
23069;DHT22;11702;50.856;4.348;2022-07-25T00:18:38;24.70;94.30
23069;DHT22;11702;50.856;4.348;2022-07-25T00:21:03;24.70;94.30
23069;DHT22;11702;50.856;4.348;2022-07-25T00:23:29;24.60;94.30
23069;DHT22;11702;50.856;4.348;2022-07-25T00:25:55;24.60;94.50
23069;DHT22;11702;50.856;4.348;2022-07-25T00:28:20;24.60;94.50
23069;DHT22;11702;50.856;4.348;2022-07-25T00:30:46;24.60;94.60
23069;DHT22;11702;50.856;4.348;2022-07-25T00:33:12;24.50;94.70
23069;DHT22;11702;50.856;4.348;2022-07-25T00:35:37;24.50;94.80
23069;DHT22;11702;50.856;4.348;2022-07-25T00:38:03;24.50;94.80
23069;DHT22;11702;50.856;4.348;2022-07-25T00:40:29;24.50;94.80
23069;DHT22;11702;50.856;4.348;2022-07-25T00:42:55;24.60;94.80
23069;DHT22;11702;50.856;4.348;2022-07-25T00:45:20;24.50;95.00
23069;DHT22;11702;50.856;4.348;2022-07-25T00:47:46;24.50;94.70
23069;DHT22;11702;50.856;4.348;2022-07-25T00:50:11;24.50;94.90
23069;DHT22;11702;50.856;4.348;2022-07-25T00:52:37;24.50;94.90
23069;DHT22;11702;50.856;4.348;2022-07-25T00:55:03;24.50;94.90
23069;DHT22;11702;50.856;4.348;2022-07-25T00:57:29;24.60;94.90
23069;DHT22;11702;50.856;4.348;2022-07-25T00:59:55;24.60;94.90
23069;DHT22;11702;50.856;4.348;2022-07-25T01:02:20;24.50;95.00
23069;DHT22;11702;50.856;4.348;2022-07-25T01:04:46;24.50;95.10
23069;DHT22;11702;50.856;4.348;2022-07-25T01:07:12;24.40;95.20
23069;DHT22;11702;50.856;4.348;2022-07-25T01:09:38;24.40;95.40
23069;DHT22;11702;50.856;4.348;2022-07-25T01:12:04;24.50;95.30
23069;DHT22;11702;50.856;4.348;2022-07-25T01:14:29;24.40;95.30
23069;DHT22;11702;50.856;4.348;2022-07-25T01:16:55;24.40;95.40
23069;DHT22;11702;50.856;4.348;2022-07-25T01:19:21;24.40;95.50
23069;DHT22;11702;50.856;4.348;2022-07-25T01:21:47;24.40;95.50
23069;DHT22;11702;50.856;4.348;2022-07-25T01:24:12;24.40;95.60
23069;DHT22;11702;50.856;4.348;2022-07-25T01:26:38;24.40;95.60
23069;DHT22;11702;50.856;4.348;2022-07-25T01:29:04;24.40;95.70
23069;DHT22;11702;50.856;4.348;2022-07-25T01:31:30;24.40;95.70
23069;DHT22;11702;50.856;4.348;2022-07-25T01:33:55;24.40;95.80
23069;DHT22;11702;50.856;4.348;2022-07-25T01:36:21;24.40;95.80
23069;DHT22;11702;50.856;4.348;2022-07-25T01:38:47;24.50;95.70
23069;DHT22;11702;50.856;4.348;2022-07-25T01:41:12;24.50;95.50
23069;DHT22;11702;50.856;4.348;2022-07-25T01:43:38;24.50;95.70
23069;DHT22;11702;50.856;4.348;2022-07-25T01:46:04;24.50;95.80
23069;DHT22;11702;50.856;4.348;2022-07-25T01:48:29;24.40;96.00
23069;DHT22;11702;50.856;4.348;2022-07-25T01:50:55;24.20;96.40
23069;DHT22;11702;50.856;4.348;2022-07-25T01:53:21;24.20;96.50
23069;DHT22;11702;50.856;4.348;2022-07-25T01:55:47;24.00;96.90
23069;DHT22;11702;50.856;4.348;2022-07-25T01:58:13;24.00;97.10
23069;DHT22;11702;50.856;4.348;2022-07-25T02:00:39;24.00;97.40
23069;DHT22;11702;50.856;4.348;2022-07-25T02:03:04;23.90;97.60
23069;DHT22;11702;50.856;4.348;2022-07-25T02:05:49;23.70;97.90
23069;DHT22;11702;50.856;4.348;2022-07-25T02:08:14;23.70;98.10
23069;DHT22;11702;50.856;4.348;2022-07-25T02:10:40;23.70;98.30
23069;DHT22;11702;50.856;4.348;2022-07-25T02:13:06;23.60;98.80
23069;DHT22;11702;50.856;4.348;2022-07-25T02:15:32;23.50;99.40
23069;DHT22;11702;50.856;4.348;2022-07-25T02:17:57;23.50;99.40
23069;DHT22;11702;50.856;4.348;2022-07-25T02:20:23;23.50;99.70
23069;DHT22;11702;50.856;4.348;2022-07-25T02:22:49;23.30;99.90
23069;DHT22;11702;50.856;4.348;2022-07-25T02:25:15;23.30;99.90
23069;DHT22;11702;50.856;4.348;2022-07-25T02:27:41;23.30;99.90
23069;DHT22;11702;50.856;4.348;2022-07-25T02:30:07;23.30;99.90
23069;DHT22;11702;50.856;4.348;2022-07-25T02:32:33;23.20;99.90
23069;DHT22;11702;50.856;4.348;2022-07-25T02:34:58;23.20;99.90
23069;DHT22;11702;50.856;4.348;2022-07-25T02:37:24;23.10;99.90
23069;DHT22;11702;50.856;4.348;2022-07-25T02:39:50;23.10;99.90
23069;DHT22;11702;50.856;4.348;2022-07-25T02:42:15;23.10;99.90
23069;DHT22;11702;50.856;4.348;2022-07-25T02:44:41;23.10;99.90
23069;DHT22;11702;50.856;4.348;2022-07-25T02:47:07;23.10;99.90
23069;DHT22;11702;50.856;4.348;2022-07-25T02:49:32;23.00;99.90
23069;DHT22;11702;50.856;4.348;2022-07-25T02:51:58;22.90;99.90
23069;DHT22;11702;50.856;4.348;2022-07-25T02:54:24;22.90;99.90
23069;DHT22;11702;50.856;4.348;2022-07-25T02:56:49;22.90;99.90
23069;DHT22;11702;50.856;4.348;2022-07-25T02:59:15;22.80;99.90
23069;DHT22;11702;50.856;4.348;2022-07-25T03:01:41;22.90;99.90
23069;DHT22;11702;50.856;4.348;2022-07-25T03:04:06;23.00;99.90
23069;DHT22;11702;50.856;4.348;2022-07-25T03:06:32;23.00;99.90
23069;DHT22;11702;50.856;4.348;2022-07-25T03:08:58;22.90;99.90
23069;DHT22;11702;50.856;4.348;2022-07-25T03:11:24;22.90;99.90
23069;DHT22;11702;50.856;4.348;2022-07-25T03:13:49;22.90;99.90
23069;DHT22;11702;50.856;4.348;2022-07-25T03:16:15;22.80;99.90
23069;DHT22;11702;50.856;4.348;2022-07-25T03:18:41;22.80;99.90
23069;DHT22;11702;50.856;4.348;2022-07-25T03:21:06;22.90;99.90
23069;DHT22;11702;50.856;4.348;2022-07-25T03:23:32;22.90;99.90
23069;DHT22;11702;50.856;4.348;2022-07-25T03:25:58;22.80;99.90
23069;DHT22;11702;50.856;4.348;2022-07-25T03:28:24;22.90;99.90
23069;DHT22;11702;50.856;4.348;2022-07-25T03:30:50;23.10;99.90
23069;DHT22;11702;50.856;4.348;2022-07-25T03:33:16;23.10;99.90
23069;DHT22;11702;50.856;4.348;2022-07-25T03:35:42;23.20;99.90
23069;DHT22;11702;50.856;4.348;2022-07-25T03:38:08;23.10;99.90
23069;DHT22;11702;50.856;4.348;2022-07-25T03:40:34;23.00;99.90
23069;DHT22;11702;50.856;4.348;2022-07-25T03:43:01;23.00;99.90
23069;DHT22;11702;50.856;4.348;2022-07-25T03:45:26;23.00;99.90
23069;DHT22;11702;50.856;4.348;2022-07-25T03:47:52;22.90;99.90
23069;DHT22;11702;50.856;4.348;2022-07-25T03:50:18;22.80;99.90
23069;DHT22;11702;50.856;4.348;2022-07-25T03:52:43;22.80;99.90
23069;DHT22;11702;50.856;4.348;2022-07-25T03:55:10;22.80;99.90
23069;DHT22;11702;50.856;4.348;2022-07-25T03:57:36;22.70;99.90
23069;DHT22;11702;50.856;4.348;2022-07-25T04:00:07;22.70;99.90
23069;DHT22;11702;50.856;4.348;2022-07-25T04:02:33;22.70;99.90
23069;DHT22;11702;50.856;4.348;2022-07-25T04:04:59;22.60;99.90
23069;DHT22;11702;50.856;4.348;2022-07-25T04:07:25;22.60;99.90
23069;DHT22;11702;50.856;4.348;2022-07-25T04:09:51;22.50;99.90
23069;DHT22;11702;50.856;4.348;2022-07-25T04:12:16;22.50;99.90
23069;DHT22;11702;50.856;4.348;2022-07-25T04:14:42;22.40;99.90
23069;DHT22;11702;50.856;4.348;2022-07-25T04:17:07;22.30;99.90
23069;DHT22;11702;50.856;4.348;2022-07-25T04:19:33;22.30;99.90
23069;DHT22;11702;50.856;4.348;2022-07-25T04:21:59;22.30;99.90
23069;DHT22;11702;50.856;4.348;2022-07-25T04:24:24;22.30;99.90
23069;DHT22;11702;50.856;4.348;2022-07-25T04:26:50;22.40;99.90
23069;DHT22;11702;50.856;4.348;2022-07-25T04:29:16;22.40;99.90
23069;DHT22;11702;50.856;4.348;2022-07-25T04:31:41;22.40;99.90
23069;DHT22;11702;50.856;4.348;2022-07-25T04:34:07;22.30;99.90
23069;DHT22;11702;50.856;4.348;2022-07-25T04:36:32;22.20;99.90
23069;DHT22;11702;50.856;4.348;2022-07-25T04:38:58;22.10;99.90
23069;DHT22;11702;50.856;4.348;2022-07-25T04:41:24;22.10;99.90
23069;DHT22;11702;50.856;4.348;2022-07-25T04:43:49;22.20;99.90
23069;DHT22;11702;50.856;4.348;2022-07-25T04:46:19;22.20;99.90
23069;DHT22;11702;50.856;4.348;2022-07-25T04:48:45;22.20;99.90
23069;DHT22;11702;50.856;4.348;2022-07-25T04:51:10;22.10;99.90
23069;DHT22;11702;50.856;4.348;2022-07-25T04:53:36;22.10;99.90
23069;DHT22;11702;50.856;4.348;2022-07-25T04:56:02;22.10;99.90
23069;DHT22;11702;50.856;4.348;2022-07-25T04:58:27;22.10;99.90
23069;DHT22;11702;50.856;4.348;2022-07-25T05:00:53;22.00;99.90
23069;DHT22;11702;50.856;4.348;2022-07-25T05:03:18;22.10;99.90
23069;DHT22;11702;50.856;4.348;2022-07-25T05:05:44;21.90;99.90
23069;DHT22;11702;50.856;4.348;2022-07-25T05:08:10;21.90;99.90
23069;DHT22;11702;50.856;4.348;2022-07-25T05:10:35;21.90;99.90
23069;DHT22;11702;50.856;4.348;2022-07-25T05:13:01;21.90;99.90
23069;DHT22;11702;50.856;4.348;2022-07-25T05:15:27;21.90;99.90
23069;DHT22;11702;50.856;4.348;2022-07-25T05:17:52;21.90;99.90
23069;DHT22;11702;50.856;4.348;2022-07-25T05:20:18;22.00;99.90
23069;DHT22;11702;50.856;4.348;2022-07-25T05:22:43;21.90;99.90
23069;DHT22;11702;50.856;4.348;2022-07-25T05:25:10;21.90;99.90
23069;DHT22;11702;50.856;4.348;2022-07-25T05:27:36;21.80;99.90
23069;DHT22;11702;50.856;4.348;2022-07-25T05:30:03;21.80;99.90
23069;DHT22;11702;50.856;4.348;2022-07-25T05:32:30;21.80;99.90
23069;DHT22;11702;50.856;4.348;2022-07-25T05:34:56;21.90;99.90
23069;DHT22;11702;50.856;4.348;2022-07-25T05:37:21;21.90;99.90
23069;DHT22;11702;50.856;4.348;2022-07-25T05:39:47;21.90;99.90
23069;DHT22;11702;50.856;4.348;2022-07-25T05:42:13;22.00;99.90
23069;DHT22;11702;50.856;4.348;2022-07-25T05:44:38;22.00;99.90
23069;DHT22;11702;50.856;4.348;2022-07-25T05:47:09;22.10;99.90
23069;DHT22;11702;50.856;4.348;2022-07-25T05:49:35;22.20;99.90
23069;DHT22;11702;50.856;4.348;2022-07-25T05:52:00;22.30;99.90
23069;DHT22;11702;50.856;4.348;2022-07-25T05:54:26;22.40;99.90
23069;DHT22;11702;50.856;4.348;2022-07-25T05:56:52;22.60;99.90
23069;DHT22;11702;50.856;4.348;2022-07-25T05:59:17;22.70;99.90
23069;DHT22;11702;50.856;4.348;2022-07-25T06:01:43;22.80;99.90
23069;DHT22;11702;50.856;4.348;2022-07-25T06:04:09;22.80;99.90
23069;DHT22;11702;50.856;4.348;2022-07-25T06:06:34;22.70;99.90
23069;DHT22;11702;50.856;4.348;2022-07-25T06:09:00;22.50;99.90
23069;DHT22;11702;50.856;4.348;2022-07-25T06:11:26;22.50;99.90
23069;DHT22;11702;50.856;4.348;2022-07-25T06:13:53;22.60;99.90
23069;DHT22;11702;50.856;4.348;2022-07-25T06:16:19;22.80;99.90
23069;DHT22;11702;50.856;4.348;2022-07-25T06:18:44;22.90;99.90
23069;DHT22;11702;50.856;4.348;2022-07-25T06:21:10;23.10;99.90
23069;DHT22;11702;50.856;4.348;2022-07-25T06:23:35;23.30;99.90
23069;DHT22;11702;50.856;4.348;2022-07-25T06:26:01;23.60;99.90
23069;DHT22;11702;50.856;4.348;2022-07-25T06:28:27;23.70;99.90
23069;DHT22;11702;50.856;4.348;2022-07-25T06:30:53;23.90;99.90
23069;DHT22;11702;50.856;4.348;2022-07-25T06:33:18;23.90;99.90
23069;DHT22;11702;50.856;4.348;2022-07-25T06:35:44;23.80;99.90
23069;DHT22;11702;50.856;4.348;2022-07-25T06:38:10;24.00;99.90
23069;DHT22;11702;50.856;4.348;2022-07-25T06:40:36;24.00;99.90
23069;DHT22;11702;50.856;4.348;2022-07-25T06:43:01;24.00;99.90
23069;DHT22;11702;50.856;4.348;2022-07-25T06:45:27;24.00;99.90
23069;DHT22;11702;50.856;4.348;2022-07-25T06:47:53;24.40;99.90
23069;DHT22;11702;50.856;4.348;2022-07-25T06:50:19;24.30;99.90
23069;DHT22;11702;50.856;4.348;2022-07-25T06:52:45;24.70;99.90
23069;DHT22;11702;50.856;4.348;2022-07-25T06:55:12;24.80;99.90
23069;DHT22;11702;50.856;4.348;2022-07-25T06:57:38;25.10;99.90
23069;DHT22;11702;50.856;4.348;2022-07-25T07:00:06;25.00;99.90
23069;DHT22;11702;50.856;4.348;2022-07-25T07:02:53;24.90;99.90
23069;DHT22;11702;50.856;4.348;2022-07-25T07:05:23;25.00;99.90
23069;DHT22;11702;50.856;4.348;2022-07-25T07:07:49;24.90;99.90
23069;DHT22;11702;50.856;4.348;2022-07-25T07:10:16;25.00;99.90
23069;DHT22;11702;50.856;4.348;2022-07-25T07:12:44;24.80;99.90
23069;DHT22;11702;50.856;4.348;2022-07-25T07:15:10;24.80;99.90
23069;DHT22;11702;50.856;4.348;2022-07-25T07:17:36;24.70;99.90
23069;DHT22;11702;50.856;4.348;2022-07-25T07:20:03;24.60;99.90
23069;DHT22;11702;50.856;4.348;2022-07-25T07:22:29;24.70;99.90
23069;DHT22;11702;50.856;4.348;2022-07-25T07:24:55;24.60;99.90
23069;DHT22;11702;50.856;4.348;2022-07-25T07:27:21;24.50;99.90
23069;DHT22;11702;50.856;4.348;2022-07-25T07:29:49;24.30;99.90
23069;DHT22;11702;50.856;4.348;2022-07-25T07:32:15;24.50;99.90
23069;DHT22;11702;50.856;4.348;2022-07-25T07:34:40;24.50;99.90
23069;DHT22;11702;50.856;4.348;2022-07-25T07:37:06;24.80;99.90
23069;DHT22;11702;50.856;4.348;2022-07-25T07:39:31;25.00;99.90
23069;DHT22;11702;50.856;4.348;2022-07-25T07:41:57;25.10;99.90
23069;DHT22;11702;50.856;4.348;2022-07-25T07:44:23;25.30;99.90
23069;DHT22;11702;50.856;4.348;2022-07-25T07:46:48;25.40;99.90
23069;DHT22;11702;50.856;4.348;2022-07-25T07:49:14;25.10;99.90
23069;DHT22;11702;50.856;4.348;2022-07-25T07:51:40;25.20;99.90
23069;DHT22;11702;50.856;4.348;2022-07-25T07:54:05;25.20;99.90
23069;DHT22;11702;50.856;4.348;2022-07-25T07:56:49;25.20;99.90
23069;DHT22;11702;50.856;4.348;2022-07-25T07:59:15;25.40;99.90
23069;DHT22;11702;50.856;4.348;2022-07-25T08:01:41;25.60;99.90
23069;DHT22;11702;50.856;4.348;2022-07-25T08:04:07;25.60;99.90
23069;DHT22;11702;50.856;4.348;2022-07-25T08:06:32;25.60;99.90
23069;DHT22;11702;50.856;4.348;2022-07-25T08:08:58;25.40;99.90
23069;DHT22;11702;50.856;4.348;2022-07-25T08:11:24;25.40;99.90
23069;DHT22;11702;50.856;4.348;2022-07-25T08:13:50;25.30;99.90
23069;DHT22;11702;50.856;4.348;2022-07-25T08:16:16;25.50;99.90
23069;DHT22;11702;50.856;4.348;2022-07-25T08:18:42;25.70;99.90
23069;DHT22;11702;50.856;4.348;2022-07-25T08:21:07;25.80;99.90
23069;DHT22;11702;50.856;4.348;2022-07-25T08:23:33;25.80;99.90
23069;DHT22;11702;50.856;4.348;2022-07-25T08:26:00;25.90;99.90
23069;DHT22;11702;50.856;4.348;2022-07-25T08:28:26;26.20;99.90
23069;DHT22;11702;50.856;4.348;2022-07-25T08:30:53;26.40;99.90
23069;DHT22;11702;50.856;4.348;2022-07-25T08:33:23;26.30;99.90
23069;DHT22;11702;50.856;4.348;2022-07-25T08:35:51;26.00;99.90
23069;DHT22;11702;50.856;4.348;2022-07-25T08:38:19;25.70;99.90
23069;DHT22;11702;50.856;4.348;2022-07-25T08:40:45;25.50;99.90
23069;DHT22;11702;50.856;4.348;2022-07-25T08:43:13;25.70;99.90
23069;DHT22;11702;50.856;4.348;2022-07-25T08:45:50;25.80;99.90
23069;DHT22;11702;50.856;4.348;2022-07-25T08:48:19;26.00;99.90
23069;DHT22;11702;50.856;4.348;2022-07-25T08:50:45;26.00;99.90
23069;DHT22;11702;50.856;4.348;2022-07-25T08:53:12;26.20;99.90
23069;DHT22;11702;50.856;4.348;2022-07-25T08:55:38;26.30;99.90
23069;DHT22;11702;50.856;4.348;2022-07-25T08:58:04;26.20;99.90
23069;DHT22;11702;50.856;4.348;2022-07-25T09:00:29;26.50;99.90
23069;DHT22;11702;50.856;4.348;2022-07-25T09:02:59;26.70;99.80
23069;DHT22;11702;50.856;4.348;2022-07-25T09:05:26;26.90;99.40
23069;DHT22;11702;50.856;4.348;2022-07-25T09:07:55;27.10;99.20
23069;DHT22;11702;50.856;4.348;2022-07-25T09:10:26;27.20;98.90
23069;DHT22;11702;50.856;4.348;2022-07-25T09:13:03;27.10;99.00
23069;DHT22;11702;50.856;4.348;2022-07-25T09:15:51;26.80;99.40
23069;DHT22;11702;50.856;4.348;2022-07-25T09:18:22;27.00;98.90
23069;DHT22;11702;50.856;4.348;2022-07-25T09:20:50;26.90;99.10
23069;DHT22;11702;50.856;4.348;2022-07-25T09:26:01;27.30;99.10
23069;DHT22;11702;50.856;4.348;2022-07-25T09:28:27;27.70;98.40
23069;DHT22;11702;50.856;4.348;2022-07-25T09:30:58;28.20;97.40
23069;DHT22;11702;50.856;4.348;2022-07-25T09:33:26;28.50;96.50
23069;DHT22;11702;50.856;4.348;2022-07-25T09:35:52;29.00;96.00
23069;DHT22;11702;50.856;4.348;2022-07-25T09:38:19;29.20;95.20
23069;DHT22;11702;50.856;4.348;2022-07-25T09:40:59;29.50;94.50
23069;DHT22;11702;50.856;4.348;2022-07-25T09:43:42;29.60;93.70
23069;DHT22;11702;50.856;4.348;2022-07-25T09:46:09;29.60;92.70
23069;DHT22;11702;50.856;4.348;2022-07-25T09:48:36;28.90;92.60
23069;DHT22;11702;50.856;4.348;2022-07-25T09:51:04;28.70;92.80
23069;DHT22;11702;50.856;4.348;2022-07-25T09:53:30;28.30;93.40
23069;DHT22;11702;50.856;4.348;2022-07-25T09:55:56;28.20;93.80
23069;DHT22;11702;50.856;4.348;2022-07-25T09:58:26;28.50;93.60
23069;DHT22;11702;50.856;4.348;2022-07-25T10:01:00;28.80;92.90
23069;DHT22;11702;50.856;4.348;2022-07-25T10:03:41;28.70;93.00
23069;DHT22;11702;50.856;4.348;2022-07-25T10:06:47;28.70;92.90
23069;DHT22;11702;50.856;4.348;2022-07-25T10:09:15;28.60;92.90
23069;DHT22;11702;50.856;4.348;2022-07-25T10:12:05;28.90;92.50
23069;DHT22;11702;50.856;4.348;2022-07-25T10:14:32;28.60;93.30
23069;DHT22;11702;50.856;4.348;2022-07-25T10:16:58;28.70;92.90
23069;DHT22;11702;50.856;4.348;2022-07-25T10:19:45;28.70;93.10
23069;DHT22;11702;50.856;4.348;2022-07-25T10:22:13;28.60;93.30
23069;DHT22;11702;50.856;4.348;2022-07-25T10:24:43;28.70;93.10
23069;DHT22;11702;50.856;4.348;2022-07-25T10:27:11;28.60;93.50
23069;DHT22;11702;50.856;4.348;2022-07-25T10:29:38;28.50;93.00
23069;DHT22;11702;50.856;4.348;2022-07-25T10:32:10;28.20;93.60
23069;DHT22;11702;50.856;4.348;2022-07-25T10:34:38;28.10;94.00
23069;DHT22;11702;50.856;4.348;2022-07-25T10:37:16;28.20;93.70
23069;DHT22;11702;50.856;4.348;2022-07-25T10:39:43;28.60;93.50
23069;DHT22;11702;50.856;4.348;2022-07-25T10:42:19;28.90;92.90
23069;DHT22;11702;50.856;4.348;2022-07-25T10:45:06;29.20;92.00
23069;DHT22;11702;50.856;4.348;2022-07-25T10:47:34;29.20;91.60
23069;DHT22;11702;50.856;4.348;2022-07-25T10:50:10;29.40;91.30
23069;DHT22;11702;50.856;4.348;2022-07-25T10:52:40;29.70;90.90
23069;DHT22;11702;50.856;4.348;2022-07-25T10:55:07;29.70;91.00
23069;DHT22;11702;50.856;4.348;2022-07-25T10:57:32;28.70;91.50
23069;DHT22;11702;50.856;4.348;2022-07-25T11:00:06;28.30;92.20
23069;DHT22;11702;50.856;4.348;2022-07-25T11:02:32;28.00;92.60
23069;DHT22;11702;50.856;4.348;2022-07-25T11:04:59;27.60;93.30
23069;DHT22;11702;50.856;4.348;2022-07-25T11:07:26;27.50;93.70
23069;DHT22;11702;50.856;4.348;2022-07-25T11:09:59;27.30;93.60
23069;DHT22;11702;50.856;4.348;2022-07-25T11:12:26;27.00;94.10
23069;DHT22;11702;50.856;4.348;2022-07-25T11:14:59;26.80;94.70
23069;DHT22;11702;50.856;4.348;2022-07-25T11:17:34;26.40;94.90
23069;DHT22;11702;50.856;4.348;2022-07-25T11:20:04;26.40;95.50
23069;DHT22;11702;50.856;4.348;2022-07-25T11:22:30;26.10;95.30
23069;DHT22;11702;50.856;4.348;2022-07-25T11:24:57;26.00;95.70
23069;DHT22;11702;50.856;4.348;2022-07-25T11:27:28;25.70;96.00
23069;DHT22;11702;50.856;4.348;2022-07-25T11:30:13;25.70;96.00
23069;DHT22;11702;50.856;4.348;2022-07-25T11:32:48;25.50;96.40
23069;DHT22;11702;50.856;4.348;2022-07-25T11:35:15;25.40;96.70
23069;DHT22;11702;50.856;4.348;2022-07-25T11:37:43;25.40;96.80
23069;DHT22;11702;50.856;4.348;2022-07-25T11:40:12;25.30;97.20
23069;DHT22;11702;50.856;4.348;2022-07-25T11:42:44;25.30;97.10
23069;DHT22;11702;50.856;4.348;2022-07-25T11:47:47;25.10;97.80
23069;DHT22;11702;50.856;4.348;2022-07-25T11:50:13;24.90;98.10
23069;DHT22;11702;50.856;4.348;2022-07-25T11:52:42;25.00;99.30
23069;DHT22;11702;50.856;4.348;2022-07-25T11:55:12;25.30;98.90
23069;DHT22;11702;50.856;4.348;2022-07-25T11:57:41;25.50;97.60
23069;DHT22;11702;50.856;4.348;2022-07-25T12:00:17;25.70;96.70
23069;DHT22;11702;50.856;4.348;2022-07-25T12:02:43;26.00;96.30
23069;DHT22;11702;50.856;4.348;2022-07-25T12:05:13;26.40;96.10
23069;DHT22;11702;50.856;4.348;2022-07-25T12:07:47;26.80;95.20
23069;DHT22;11702;50.856;4.348;2022-07-25T12:10:31;26.70;95.00
23069;DHT22;11702;50.856;4.348;2022-07-25T12:12:57;26.50;95.40
23069;DHT22;11702;50.856;4.348;2022-07-25T12:15:29;26.80;95.10
23069;DHT22;11702;50.856;4.348;2022-07-25T12:17:56;27.20;94.70
23069;DHT22;11702;50.856;4.348;2022-07-25T12:20:28;27.30;93.70
23069;DHT22;11702;50.856;4.348;2022-07-25T12:22:57;27.10;94.20
23069;DHT22;11702;50.856;4.348;2022-07-25T12:25:24;26.90;94.20
23069;DHT22;11702;50.856;4.348;2022-07-25T12:27:51;26.80;94.10
23069;DHT22;11702;50.856;4.348;2022-07-25T12:30:17;26.70;94.30
23069;DHT22;11702;50.856;4.348;2022-07-25T12:32:43;26.50;94.70
23069;DHT22;11702;50.856;4.348;2022-07-25T12:35:11;26.40;94.90
23069;DHT22;11702;50.856;4.348;2022-07-25T12:37:38;26.40;95.20
23069;DHT22;11702;50.856;4.348;2022-07-25T12:40:05;26.60;94.90
23069;DHT22;11702;50.856;4.348;2022-07-25T12:42:31;26.80;94.70
23069;DHT22;11702;50.856;4.348;2022-07-25T12:44:56;26.90;94.70
23069;DHT22;11702;50.856;4.348;2022-07-25T12:47:23;27.10;94.50
23069;DHT22;11702;50.856;4.348;2022-07-25T12:49:49;27.10;94.30
23069;DHT22;11702;50.856;4.348;2022-07-25T12:52:15;27.20;93.90
23069;DHT22;11702;50.856;4.348;2022-07-25T12:54:40;27.30;93.60
23069;DHT22;11702;50.856;4.348;2022-07-25T12:57:06;27.60;93.30
23069;DHT22;11702;50.856;4.348;2022-07-25T12:59:32;27.70;93.10
23069;DHT22;11702;50.856;4.348;2022-07-25T13:01:58;27.70;92.50
23069;DHT22;11702;50.856;4.348;2022-07-25T13:04:23;27.60;92.20
23069;DHT22;11702;50.856;4.348;2022-07-25T13:06:54;27.70;92.30
23069;DHT22;11702;50.856;4.348;2022-07-25T13:09:20;27.60;92.00
23069;DHT22;11702;50.856;4.348;2022-07-25T13:11:46;27.60;91.90
23069;DHT22;11702;50.856;4.348;2022-07-25T13:14:12;27.70;91.90
23069;DHT22;11702;50.856;4.348;2022-07-25T13:16:37;27.90;91.50
23069;DHT22;11702;50.856;4.348;2022-07-25T13:19:04;27.80;91.20
23069;DHT22;11702;50.856;4.348;2022-07-25T13:21:30;27.80;91.50
23069;DHT22;11702;50.856;4.348;2022-07-25T13:23:56;27.80;91.20
23069;DHT22;11702;50.856;4.348;2022-07-25T13:26:22;27.70;91.10
23069;DHT22;11702;50.856;4.348;2022-07-25T13:28:48;27.80;91.50
23069;DHT22;11702;50.856;4.348;2022-07-25T13:31:19;27.50;91.50
23069;DHT22;11702;50.856;4.348;2022-07-25T13:33:46;27.50;91.60
23069;DHT22;11702;50.856;4.348;2022-07-25T13:36:12;27.60;91.50
23069;DHT22;11702;50.856;4.348;2022-07-25T13:38:38;27.60;91.20
23069;DHT22;11702;50.856;4.348;2022-07-25T13:41:06;27.60;91.00
23069;DHT22;11702;50.856;4.348;2022-07-25T13:43:32;27.40;90.90
23069;DHT22;11702;50.856;4.348;2022-07-25T13:45:58;27.50;91.00
23069;DHT22;11702;50.856;4.348;2022-07-25T13:48:24;27.60;90.20
23069;DHT22;11702;50.856;4.348;2022-07-25T13:50:49;27.70;89.80
23069;DHT22;11702;50.856;4.348;2022-07-25T13:53:15;27.70;89.40
23069;DHT22;11702;50.856;4.348;2022-07-25T13:55:41;27.70;89.30
23069;DHT22;11702;50.856;4.348;2022-07-25T13:58:07;27.80;88.80
23069;DHT22;11702;50.856;4.348;2022-07-25T14:00:33;27.90;89.00
23069;DHT22;11702;50.856;4.348;2022-07-25T14:02:59;27.90;89.00
23069;DHT22;11702;50.856;4.348;2022-07-25T14:05:25;28.20;88.10
23069;DHT22;11702;50.856;4.348;2022-07-25T14:07:50;28.30;87.20
23069;DHT22;11702;50.856;4.348;2022-07-25T14:10:16;27.90;87.70
23069;DHT22;11702;50.856;4.348;2022-07-25T14:12:42;27.70;87.50
23069;DHT22;11702;50.856;4.348;2022-07-25T14:15:08;27.80;88.20
23069;DHT22;11702;50.856;4.348;2022-07-25T14:17:33;27.90;87.80
23069;DHT22;11702;50.856;4.348;2022-07-25T14:19:59;27.70;87.00
23069;DHT22;11702;50.856;4.348;2022-07-25T14:22:25;27.90;86.70
23069;DHT22;11702;50.856;4.348;2022-07-25T14:24:50;27.50;87.10
23069;DHT22;11702;50.856;4.348;2022-07-25T14:27:16;27.50;86.80
23069;DHT22;11702;50.856;4.348;2022-07-25T14:29:42;27.60;87.00
23069;DHT22;11702;50.856;4.348;2022-07-25T14:32:08;27.60;86.00
23069;DHT22;11702;50.856;4.348;2022-07-25T14:34:34;27.30;84.80
23069;DHT22;11702;50.856;4.348;2022-07-25T14:37:01;27.10;85.00
23069;DHT22;11702;50.856;4.348;2022-07-25T14:39:26;27.00;85.70
23069;DHT22;11702;50.856;4.348;2022-07-25T14:41:52;27.00;86.60
23069;DHT22;11702;50.856;4.348;2022-07-25T14:44:18;26.90;86.60
23069;DHT22;11702;50.856;4.348;2022-07-25T14:46:44;26.80;87.10
23069;DHT22;11702;50.856;4.348;2022-07-25T14:49:13;26.90;86.20
23069;DHT22;11702;50.856;4.348;2022-07-25T14:51:40;27.10;86.20
23069;DHT22;11702;50.856;4.348;2022-07-25T14:54:06;27.20;86.10
23069;DHT22;11702;50.856;4.348;2022-07-25T14:56:31;27.10;87.30
23069;DHT22;11702;50.856;4.348;2022-07-25T14:58:57;27.10;87.30
23069;DHT22;11702;50.856;4.348;2022-07-25T15:01:23;27.20;87.00
23069;DHT22;11702;50.856;4.348;2022-07-25T15:03:50;27.30;86.60
23069;DHT22;11702;50.856;4.348;2022-07-25T15:06:16;27.30;86.40
23069;DHT22;11702;50.856;4.348;2022-07-25T15:08:42;27.50;85.30
23069;DHT22;11702;50.856;4.348;2022-07-25T15:11:08;27.50;84.70
23069;DHT22;11702;50.856;4.348;2022-07-25T15:13:34;27.20;85.40
23069;DHT22;11702;50.856;4.348;2022-07-25T15:16:00;27.20;85.80
23069;DHT22;11702;50.856;4.348;2022-07-25T15:18:26;27.20;85.40
23069;DHT22;11702;50.856;4.348;2022-07-25T15:20:52;27.70;84.40
23069;DHT22;11702;50.856;4.348;2022-07-25T15:23:20;27.80;83.50
23069;DHT22;11702;50.856;4.348;2022-07-25T15:25:48;27.40;82.90
23069;DHT22;11702;50.856;4.348;2022-07-25T15:28:13;27.40;83.60
23069;DHT22;11702;50.856;4.348;2022-07-25T15:30:39;27.50;83.20
23069;DHT22;11702;50.856;4.348;2022-07-25T15:33:04;27.50;82.80
23069;DHT22;11702;50.856;4.348;2022-07-25T15:35:30;27.50;82.20